Burns, OR

4:21 AM PST on February 27, 2015 (GMT -0800)
Burns Municipal | Change Station
CLOSE
Current Station
Airport
Location: Burns,
Elevation: 4170 ft
Nearby Weather Stations
Active Advisory: Winter Weather Advisory

Elev 4170 ft 43.60 °N, 118.96 °W | Updated 28 minutes ago

Overcast
Overcast
27 °F
Feels Like 22 °F
N
5
Wind Variable Wind from NNE

Today
High -- | Low -- °F
--% Chance of Precip.
Yesterday
High -- | Low -- °F
Precip. -- in
6:35 AM 5:41 PM
Waxing Gibbous, 68% visible
Pressure 29.80 in
Visibility 10.0 miles
Clouds Overcast 200 ft
Windchill 22 °F
Dew Point 24 °F
Humidity 89%
Rainfall 0.00 in
Snow Depth Not available.
UV 0 out of 12
Pollen .60 out of 12
Air Quality Not available.
Flu Activity Not available.
METAR KBNO 271153Z AUTO 03004KT 10SM OVC002 M03/M04 A2977 RMK AO2 SLP090 7//// T10281044 11022 21050 58022 PWINO FZRANO

More Conditions Fewer Conditions

Pressure 29.80 in
Visibility 10.0 miles
Clouds Overcast 200 ft
Windchill 22 °F
Dew Point 24 °F
Humidity 89%
Rainfall 0.00 in
Snow Depth Not available.
UV 0 out of 12
Pollen .60 out of 12
Air Quality Not available.
Flu Activity Not available.
METAR KBNO 271153Z AUTO 03004KT 10SM OVC002 M03/M04 A2977 RMK AO2 SLP090 7//// T10281044 11022 21050 58022 PWINO FZRANO

More Conditions Fewer Conditions

10-Day Weather Forecast

Almanac

Astronomy

Feb. 27, 2015 Rise Set
Actual Time
Civil Twilight
Nautical Twilight
Astronomical Twilight
Moon
Length of Visible Light
Length of Day
Tomorrow will be .
, % of the Moon is Illuminated

Today's Extremes

State Highs State Lows

Community

WunderPhotos

Upload Photos

1,800,663 photos uploaded!

WunderBlogs® & News

Nearby

Air Quality

  Air Quality AQ Index Pollutant
Not available.

Snow Depth

Station Depth Elevation

Earthquake Activity

City Distance Mag. Time & Date
Minimum magnitude displayed is 2.5.

Coastal Water Temperatures

Place Temperature

Nearby Weather Stations

Winter Weather Advisory
Statement as of 3:22 AM MST on February 27, 2015

... Winter Weather Advisory in effect until 2 PM PST this
afternoon across most of Harney County...

The National Weather Service in Boise has issued a Winter Weather
Advisory for snow in Harney County except near the Nevada
border... which is in effect until 2 PM PST this afternoon.

* Snow amounts... 2 to 4 inches except up to 8 inches across Steens
Mountain and 4 to 6 inches in the mountain north of Burns.

* Timing... snow will spread across the Harney... Lake County border
by 4 am PST. Snow will change to rain below 4500 feet around
noon. Snow will decrease from the west late this afternoon but
pick up and early Saturday.

* Impacts... roads will become snow-covered and slick.

Precautionary/preparedness actions...

A Winter Weather Advisory for snow means that periods of snow
will primarily cause travel difficulties. Be prepared for snow
covered roads and limited visibilities... and use caution while
driving.